createdAt,value
2023-08-05T00:00:38.082Z,9.30
2023-08-05T00:03:04.883Z,9.00
2023-08-05T00:05:31.775Z,8.52
2023-08-05T00:07:58.636Z,8.48
2023-08-05T00:10:25.394Z,7.60
2023-08-05T00:12:52.532Z,7.88
2023-08-05T00:15:19.304Z,7.93
2023-08-05T00:17:46.061Z,7.85
2023-08-05T00:20:13.670Z,7.28
2023-08-05T00:22:40.402Z,8.35
2023-08-05T00:25:07.469Z,8.38
2023-08-05T00:27:34.403Z,8.10
2023-08-05T00:30:01.065Z,7.57
2023-08-05T00:32:28.861Z,7.57
2023-08-05T00:34:55.760Z,7.28
2023-08-05T00:37:22.536Z,7.80
2023-08-05T00:39:49.137Z,7.28
2023-08-05T00:42:19.837Z,7.85
2023-08-05T00:44:46.900Z,7.95
2023-08-05T00:47:17.117Z,7.93
2023-08-05T00:49:44.085Z,8.65
2023-08-05T00:52:10.851Z,8.95
2023-08-05T00:54:37.462Z,7.43
2023-08-05T00:57:04.414Z,7.88
2023-08-05T00:59:31.103Z,7.75
2023-08-05T01:01:57.714Z,7.70
2023-08-05T01:04:28.038Z,7.15
2023-08-05T01:06:55.508Z,7.53
2023-08-05T01:09:26.106Z,7.25
2023-08-05T01:11:52.828Z,7.45
2023-08-05T01:14:19.605Z,7.10
2023-08-05T01:16:46.279Z,7.28
2023-08-05T01:19:23.427Z,6.95
2023-08-05T01:22:18.715Z,7.10
2023-08-05T01:24:54.567Z,6.97
2023-08-05T01:27:23.036Z,7.88
2023-08-05T01:29:49.784Z,7.40
2023-08-05T01:32:19.315Z,6.88
2023-08-05T01:34:46.954Z,6.95
2023-08-05T01:37:13.722Z,6.75
2023-08-05T01:39:40.638Z,6.80
2023-08-05T01:42:07.743Z,6.70
2023-08-05T01:44:34.616Z,7.05
2023-08-05T01:47:01.725Z,6.35
2023-08-05T01:49:28.483Z,6.95
2023-08-05T01:51:55.196Z,7.15
2023-08-05T01:54:22.024Z,7.00
2023-08-05T01:56:49.112Z,7.45
2023-08-05T01:59:15.936Z,8.25
2023-08-05T02:01:47.327Z,6.88
2023-08-05T02:04:15.063Z,6.55
2023-08-05T02:06:42.705Z,6.65
2023-08-05T02:09:09.628Z,6.50
2023-08-05T02:11:36.406Z,7.13
2023-08-05T02:14:04.019Z,7.15
2023-08-05T02:16:34.055Z,6.57
2023-08-05T02:19:01.176Z,6.65
2023-08-05T02:21:27.865Z,7.57
2023-08-05T02:23:56.180Z,6.75
2023-08-05T02:26:23.122Z,7.25
2023-08-05T02:28:50.064Z,6.50
2023-08-05T02:31:17.245Z,7.15
2023-08-05T02:33:43.904Z,6.50
2023-08-05T02:36:11.019Z,6.53
2023-08-05T02:38:37.896Z,7.35
2023-08-05T02:41:08.980Z,6.43
2023-08-05T02:43:35.765Z,6.30
2023-08-05T02:46:02.905Z,7.78
2023-08-05T02:48:29.631Z,6.45
2023-08-05T02:50:56.631Z,7.25
2023-08-05T02:53:23.536Z,6.47
2023-08-05T02:55:50.263Z,7.80
2023-08-05T02:58:17.283Z,7.45
2023-08-05T03:00:44.901Z,6.93
2023-08-05T03:03:12.266Z,8.60
2023-08-05T03:05:39.028Z,10.52
2023-08-05T03:08:06.190Z,7.05
2023-08-05T03:10:32.894Z,6.65
2023-08-05T03:12:59.709Z,7.47
2023-08-05T03:15:30.316Z,7.57
2023-08-05T03:17:57.450Z,6.93
2023-08-05T03:20:26.311Z,6.68
2023-08-05T03:22:56.543Z,6.50
2023-08-05T03:25:24.351Z,7.38
2023-08-05T03:27:51.473Z,6.40
2023-08-05T03:30:18.949Z,8.52
2023-08-05T03:32:47.932Z,6.45
2023-08-05T03:35:14.780Z,6.82
2023-08-05T03:37:41.516Z,7.28
2023-08-05T03:40:08.886Z,8.68
2023-08-05T03:42:35.623Z,8.70
2023-08-05T03:45:02.758Z,12.32
2023-08-05T03:47:29.760Z,10.77
2023-08-05T03:49:56.544Z,11.43
2023-08-05T03:52:25.333Z,12.65
2023-08-05T03:54:52.580Z,10.30
2023-08-05T03:57:19.180Z,11.20
2023-08-05T03:59:48.376Z,7.47
2023-08-05T04:02:15.807Z,6.72
2023-08-05T04:04:43.898Z,8.43
2023-08-05T04:07:10.906Z,11.05
2023-08-05T04:09:38.373Z,11.52
2023-08-05T04:12:06.660Z,10.32
2023-08-05T04:14:33.614Z,7.57
2023-08-05T04:17:01.717Z,9.15
2023-08-05T04:19:28.560Z,9.23
2023-08-05T04:21:55.952Z,7.43
2023-08-05T04:24:28.121Z,7.00
2023-08-05T04:26:54.747Z,7.65
2023-08-05T04:29:28.020Z,8.07
2023-08-05T04:31:54.800Z,6.30
2023-08-05T04:34:22.003Z,6.93
2023-08-05T04:36:53.644Z,6.40
2023-08-05T04:39:21.183Z,7.22
2023-08-05T04:41:48.469Z,7.15
2023-08-05T04:44:15.120Z,7.07
2023-08-05T04:46:41.821Z,8.13
2023-08-05T04:49:11.099Z,8.60
2023-08-05T04:51:38.010Z,7.65
2023-08-05T04:54:06.052Z,7.63
2023-08-05T04:56:34.802Z,6.80
2023-08-05T04:59:01.643Z,6.40
2023-08-05T05:01:28.795Z,5.72
2023-08-05T05:03:56.961Z,7.03
2023-08-05T05:06:25.206Z,6.93
2023-08-05T05:08:51.929Z,6.15
2023-08-05T05:11:18.606Z,7.05
2023-08-05T05:13:47.770Z,6.20
2023-08-05T05:16:14.461Z,8.23
2023-08-05T05:18:41.186Z,7.45
2023-08-05T05:21:07.940Z,5.82
2023-08-05T05:23:35.029Z,5.82
2023-08-05T05:26:01.911Z,5.25
2023-08-05T05:28:28.698Z,4.93
2023-08-05T05:30:55.467Z,5.72
2023-08-05T05:33:22.408Z,5.40
2023-08-05T05:35:51.225Z,5.80
2023-08-05T05:38:17.862Z,6.78
2023-08-05T05:40:44.546Z,5.90
2023-08-05T05:43:11.186Z,6.03
2023-08-05T05:45:38.127Z,5.43
2023-08-05T05:48:05.263Z,6.05
2023-08-05T05:50:32.015Z,5.85
2023-08-05T05:52:58.859Z,5.07
2023-08-05T05:55:25.854Z,6.00
2023-08-05T05:57:52.536Z,5.70
2023-08-05T06:00:19.332Z,4.80
2023-08-05T06:05:35.181Z,5.00
2023-08-05T06:08:02.073Z,5.10
2023-08-05T06:10:28.808Z,4.88
2023-08-05T06:12:56.666Z,4.47
2023-08-05T06:15:23.396Z,4.97
2023-08-05T06:17:50.958Z,5.38
2023-08-05T06:20:17.842Z,6.97
2023-08-05T06:22:45.146Z,5.80
2023-08-05T06:25:11.913Z,5.57
2023-08-05T06:27:39.176Z,5.30
2023-08-05T06:30:07.057Z,6.47
2023-08-05T06:32:33.861Z,4.53
2023-08-05T06:35:00.583Z,5.03
2023-08-05T06:37:27.715Z,4.00
2023-08-05T06:39:54.405Z,4.25
2023-08-05T06:42:24.737Z,4.30
2023-08-05T06:44:51.576Z,3.83
2023-08-05T06:47:18.245Z,3.90
2023-08-05T06:49:45.264Z,4.93
2023-08-05T06:52:12.231Z,3.85
2023-08-05T06:54:39.494Z,3.45
2023-08-05T06:57:06.683Z,3.85
2023-08-05T06:59:36.252Z,3.45
2023-08-05T07:02:03.244Z,4.18
2023-08-05T07:04:30.321Z,3.40
2023-08-05T07:06:59.907Z,2.95
2023-08-05T07:09:26.688Z,4.43
2023-08-05T07:11:55.642Z,4.03
2023-08-05T07:14:22.349Z,3.97
2023-08-05T07:16:49.022Z,3.28
2023-08-05T07:19:15.716Z,3.63
2023-08-05T07:21:42.468Z,4.82
2023-08-05T07:24:09.269Z,3.85
2023-08-05T07:26:36.077Z,2.83
2023-08-05T07:29:02.744Z,4.82
2023-08-05T07:31:29.481Z,5.30
2023-08-05T07:33:56.280Z,3.13
2023-08-05T07:36:23.903Z,2.70
2023-08-05T07:38:52.323Z,4.80
2023-08-05T07:41:21.423Z,3.95
2023-08-05T07:43:48.609Z,3.00
2023-08-05T07:46:15.630Z,2.40
2023-08-05T07:48:46.497Z,4.22
2023-08-05T07:51:13.943Z,4.40
2023-08-05T07:53:41.082Z,3.80
2023-08-05T07:56:14.203Z,3.22
2023-08-05T07:58:46.440Z,4.55
2023-08-05T08:01:14.960Z,3.58
2023-08-05T08:03:46.639Z,3.53
2023-08-05T08:06:17.349Z,2.92
2023-08-05T08:08:46.410Z,2.67
2023-08-05T08:11:13.506Z,2.50
2023-08-05T08:13:40.858Z,2.80
2023-08-05T08:16:08.472Z,2.00
2023-08-05T08:18:35.129Z,2.08
2023-08-05T08:21:01.889Z,5.50
2023-08-05T08:23:28.847Z,3.05
2023-08-05T08:25:59.062Z,2.13
2023-08-05T08:28:26.370Z,4.50
2023-08-05T08:30:59.551Z,3.50
2023-08-05T08:33:27.241Z,3.03
2023-08-05T08:35:54.148Z,2.15
2023-08-05T08:38:22.628Z,3.72
2023-08-05T08:40:51.067Z,1.92
2023-08-05T08:43:22.375Z,1.70
2023-08-05T08:45:53.299Z,3.00
2023-08-05T08:48:24.421Z,3.38
2023-08-05T08:50:54.304Z,4.50
2023-08-05T08:53:22.956Z,1.70
2023-08-05T08:55:50.066Z,2.28
2023-08-05T08:58:16.815Z,4.03
2023-08-05T09:00:43.621Z,3.25
2023-08-05T09:03:11.101Z,4.38
2023-08-05T09:05:50.702Z,3.00
2023-08-05T09:08:17.376Z,3.55
2023-08-05T09:10:47.892Z,1.80
2023-08-05T09:13:18.257Z,2.20
2023-08-05T09:15:45.215Z,4.68
2023-08-05T09:18:12.069Z,2.55
2023-08-05T09:20:39.759Z,2.28
2023-08-05T09:23:08.770Z,1.40
2023-08-05T09:25:40.478Z,2.50
2023-08-05T09:28:07.514Z,2.08
2023-08-05T09:30:34.792Z,6.32
2023-08-05T09:33:01.926Z,2.13
2023-08-05T09:35:28.722Z,3.03
2023-08-05T09:37:56.261Z,1.33
2023-08-05T09:40:24.181Z,1.70
2023-08-05T09:42:51.916Z,6.53
2023-08-05T09:45:20.866Z,2.65
2023-08-05T09:47:48.755Z,1.98
2023-08-05T09:50:19.237Z,1.20
2023-08-05T09:52:51.250Z,3.45
2023-08-05T09:55:20.264Z,1.23
2023-08-05T09:57:48.117Z,1.38
2023-08-05T10:00:16.125Z,6.00
2023-08-05T10:02:46.914Z,3.83
2023-08-05T10:05:14.206Z,5.35
2023-08-05T10:07:42.362Z,14.75
2023-08-05T10:10:21.163Z,2.50
2023-08-05T10:12:59.271Z,1.63
2023-08-05T10:15:38.906Z,1.55
2023-08-05T10:18:12.319Z,3.85
2023-08-05T10:20:39.887Z,2.63
2023-08-05T10:23:08.892Z,2.08
2023-08-05T10:26:02.293Z,1.70
2023-08-05T10:28:34.733Z,2.17
2023-08-05T10:31:07.748Z,6.10
2023-08-05T10:34:10.817Z,2.35
2023-08-05T10:36:46.200Z,1.50
2023-08-05T10:39:51.553Z,4.03
2023-08-05T10:42:20.157Z,2.53
2023-08-05T10:44:49.897Z,1.00
2023-08-05T10:47:21.973Z,3.95
2023-08-05T10:49:56.308Z,4.88
2023-08-05T10:52:25.073Z,5.43
2023-08-05T10:54:53.135Z,7.47
2023-08-05T10:57:34.955Z,13.38
2023-08-05T11:00:04.122Z,2.85
2023-08-05T11:02:32.425Z,2.88
2023-08-05T11:05:10.175Z,2.10
2023-08-05T11:07:46.370Z,4.40
2023-08-05T11:10:21.709Z,1.65
2023-08-05T11:12:48.477Z,2.85
2023-08-05T11:15:15.334Z,4.18
2023-08-05T11:17:56.243Z,3.25
2023-08-05T11:20:32.437Z,2.92
2023-08-05T11:22:59.261Z,1.33
2023-08-05T11:25:26.188Z,1.45
2023-08-05T11:27:57.079Z,1.88
2023-08-05T11:30:24.259Z,2.15
2023-08-05T11:32:57.145Z,2.65
2023-08-05T11:35:25.456Z,2.40
2023-08-05T11:37:52.560Z,1.33
2023-08-05T11:40:19.534Z,1.88
2023-08-05T11:42:46.925Z,5.55
2023-08-05T11:45:15.337Z,4.22
2023-08-05T11:47:43.318Z,7.28
2023-08-05T11:50:13.939Z,2.55
2023-08-05T11:53:23.165Z,1.98
2023-08-05T11:55:50.045Z,2.30
2023-08-05T11:58:16.935Z,1.48
2023-08-05T12:00:45.738Z,1.50
2023-08-05T12:03:12.774Z,5.07
2023-08-05T12:05:39.656Z,2.22
2023-08-05T12:08:06.412Z,2.83
2023-08-05T12:10:33.435Z,2.25
2023-08-05T12:13:04.987Z,3.05
2023-08-05T12:15:32.246Z,3.05
2023-08-05T12:18:08.045Z,7.65
2023-08-05T12:20:37.628Z,3.65
2023-08-05T12:23:06.801Z,3.03
2023-08-05T12:25:34.219Z,3.38
2023-08-05T12:28:05.939Z,3.70
2023-08-05T12:30:34.064Z,2.80
2023-08-05T12:33:01.332Z,1.80
2023-08-05T12:35:28.259Z,6.70
2023-08-05T12:37:55.170Z,2.50
2023-08-05T12:40:21.905Z,1.88
2023-08-05T12:42:48.790Z,1.48
2023-08-05T12:45:15.586Z,2.05
2023-08-05T12:47:42.447Z,1.85
2023-08-05T12:50:09.889Z,1.80
2023-08-05T12:52:36.957Z,5.15
2023-08-05T12:55:04.443Z,2.90
2023-08-05T12:57:33.393Z,3.05
2023-08-05T13:00:00.825Z,4.22
2023-08-05T13:02:27.798Z,3.85
2023-08-05T13:04:54.705Z,3.10
2023-08-05T13:07:21.638Z,4.25
2023-08-05T13:09:48.521Z,4.50
2023-08-05T13:12:15.971Z,2.72
2023-08-05T13:14:44.464Z,3.67
2023-08-05T13:17:11.514Z,2.42
2023-08-05T13:19:39.010Z,6.07
2023-08-05T13:22:06.087Z,2.90
2023-08-05T13:24:34.756Z,3.38
2023-08-05T13:27:05.471Z,2.15
2023-08-05T13:29:32.181Z,3.58
2023-08-05T13:31:59.748Z,6.55
2023-08-05T13:34:26.418Z,2.08
2023-08-05T13:36:53.257Z,1.70
2023-08-05T13:39:20.062Z,2.05
2023-08-05T13:41:46.796Z,4.78
2023-08-05T13:44:13.691Z,4.03
2023-08-05T13:46:40.449Z,3.15
2023-08-05T13:49:07.615Z,2.00
2023-08-05T13:51:35.211Z,2.75
2023-08-05T13:54:02.272Z,3.72
2023-08-05T13:56:28.956Z,5.57
2023-08-05T13:58:55.903Z,2.17
2023-08-05T14:01:22.912Z,16.67
2023-08-05T14:03:49.823Z,2.17
2023-08-05T14:06:16.676Z,2.17
2023-08-05T14:08:49.214Z,2.08
2023-08-05T14:11:16.944Z,1.65
2023-08-05T14:13:46.539Z,4.22
2023-08-05T14:16:13.315Z,1.45
2023-08-05T14:18:40.078Z,3.92
2023-08-05T14:21:07.581Z,2.95
2023-08-05T14:23:34.363Z,2.63
2023-08-05T14:26:01.371Z,2.40
2023-08-05T14:28:28.642Z,1.60
2023-08-05T14:30:55.424Z,6.85
2023-08-05T14:33:22.314Z,3.10
2023-08-05T14:35:49.059Z,2.05
2023-08-05T14:38:15.708Z,2.05
2023-08-05T14:40:42.587Z,4.50
2023-08-05T14:43:09.559Z,3.10
2023-08-05T14:45:40.469Z,1.63
2023-08-05T14:48:07.644Z,3.83
2023-08-05T14:50:39.296Z,1.98
2023-08-05T14:53:06.743Z,3.65
2023-08-05T14:55:33.590Z,1.52
2023-08-05T14:58:00.495Z,2.30
2023-08-05T15:00:28.008Z,2.83
2023-08-05T15:02:55.552Z,1.73
2023-08-05T15:05:22.791Z,3.30
2023-08-05T15:07:49.601Z,2.75
2023-08-05T15:10:16.477Z,4.72
2023-08-05T15:12:43.286Z,1.73
2023-08-05T15:15:10.354Z,1.45
2023-08-05T15:17:37.081Z,4.85
2023-08-05T15:20:04.363Z,2.75
2023-08-05T15:22:31.008Z,4.78
2023-08-05T15:24:58.936Z,3.60
2023-08-05T15:27:25.839Z,1.70
2023-08-05T15:29:59.216Z,5.15
2023-08-05T15:32:26.914Z,2.38
2023-08-05T15:34:54.157Z,1.65
2023-08-05T15:37:20.944Z,5.65
2023-08-05T15:39:47.612Z,6.57
2023-08-05T15:42:14.422Z,3.10
2023-08-05T15:44:41.129Z,5.28
2023-08-05T15:47:07.861Z,3.38
2023-08-05T15:49:34.700Z,2.72
2023-08-05T15:52:01.527Z,3.25
2023-08-05T15:54:28.203Z,1.98
2023-08-05T15:56:54.933Z,5.70
2023-08-05T15:59:21.553Z,2.50
2023-08-05T16:01:48.232Z,5.57
2023-08-05T16:04:15.290Z,3.03
2023-08-05T16:06:44.301Z,5.53
2023-08-05T16:09:11.420Z,3.58
2023-08-05T16:11:38.373Z,3.40
2023-08-05T16:14:05.092Z,3.13
2023-08-05T16:16:31.922Z,2.22
2023-08-05T16:18:58.755Z,1.90
2023-08-05T16:21:26.108Z,2.38
2023-08-05T16:23:58.757Z,2.08
2023-08-05T16:26:27.081Z,1.90
2023-08-05T16:28:54.422Z,4.20
2023-08-05T16:31:23.712Z,1.70
2023-08-05T16:33:50.684Z,2.38
2023-08-05T16:36:17.542Z,2.90
2023-08-05T16:38:46.751Z,2.70
2023-08-05T16:41:13.735Z,2.00
2023-08-05T16:43:44.671Z,2.13
2023-08-05T16:46:11.719Z,2.00
2023-08-05T16:48:38.530Z,3.08
2023-08-05T16:51:06.133Z,3.20
2023-08-05T16:53:34.391Z,3.45
2023-08-05T16:56:05.417Z,2.08
2023-08-05T16:58:32.460Z,5.45
2023-08-05T17:00:59.250Z,4.05
2023-08-05T17:03:26.389Z,3.15
2023-08-05T17:05:53.591Z,2.25
2023-08-05T17:08:20.937Z,2.92
2023-08-05T17:10:47.662Z,6.88
2023-08-05T17:13:14.278Z,2.10
2023-08-05T17:15:45.362Z,2.70
2023-08-05T17:18:13.481Z,2.45
2023-08-05T17:20:40.362Z,1.70
2023-08-05T17:23:07.009Z,1.75
2023-08-05T17:25:38.198Z,3.53
2023-08-05T17:28:04.929Z,2.22
2023-08-05T17:30:33.501Z,2.75
2023-08-05T17:33:00.347Z,4.28
2023-08-05T17:35:29.924Z,3.67
2023-08-05T17:37:56.794Z,2.22
2023-08-05T17:40:23.798Z,3.60
2023-08-05T17:42:50.493Z,3.28
2023-08-05T17:45:18.928Z,8.73
2023-08-05T17:47:46.437Z,3.00
2023-08-05T17:50:13.519Z,3.08
2023-08-05T17:52:40.502Z,6.10
2023-08-05T17:55:07.762Z,2.78
2023-08-05T17:57:34.433Z,1.73
2023-08-05T18:00:01.318Z,2.95
2023-08-05T18:02:28.200Z,3.75
2023-08-05T18:04:55.015Z,3.25
2023-08-05T18:07:21.705Z,2.38
2023-08-05T18:09:48.533Z,3.00
2023-08-05T18:12:15.371Z,4.22
2023-08-05T18:14:46.275Z,2.88
2023-08-05T18:17:12.943Z,1.83
2023-08-05T18:19:39.614Z,2.40
2023-08-05T18:22:07.231Z,2.78
2023-08-05T18:24:34.067Z,6.07
2023-08-05T18:27:00.838Z,2.95
2023-08-05T18:29:27.498Z,2.53
2023-08-05T18:31:54.643Z,2.05
2023-08-05T18:34:22.647Z,3.78
2023-08-05T18:36:51.284Z,3.33
2023-08-05T18:39:18.216Z,2.65
2023-08-05T18:41:49.024Z,4.78
2023-08-05T18:44:16.522Z,3.08
2023-08-05T18:46:43.489Z,3.38
2023-08-05T18:49:10.151Z,3.20
2023-08-05T18:51:37.225Z,3.33
2023-08-05T18:54:04.473Z,2.05
2023-08-05T18:56:31.285Z,2.20
2023-08-05T18:58:58.079Z,2.33
2023-08-05T19:01:24.967Z,2.20
2023-08-05T19:03:51.806Z,2.03
2023-08-05T19:06:18.676Z,1.98
2023-08-05T19:08:50.972Z,2.80
2023-08-05T19:11:31.717Z,3.35
2023-08-05T19:14:12.511Z,3.17
2023-08-05T19:16:41.289Z,2.20
2023-08-05T19:19:13.636Z,3.15
2023-08-05T19:21:40.477Z,2.08
2023-08-05T19:24:07.598Z,3.22
2023-08-05T19:26:40.428Z,1.90
2023-08-05T19:29:07.824Z,2.50
2023-08-05T19:31:35.848Z,2.55
2023-08-05T19:34:02.684Z,3.67
2023-08-05T19:36:29.311Z,3.60
2023-08-05T19:38:56.125Z,3.15
2023-08-05T19:41:23.303Z,3.35
2023-08-05T19:43:50.003Z,5.97
2023-08-05T19:46:16.794Z,4.22
2023-08-05T19:48:46.856Z,3.90
2023-08-05T19:51:15.066Z,2.13
2023-08-05T19:53:46.645Z,2.38
2023-08-05T19:56:14.190Z,3.15
2023-08-05T19:58:49.544Z,4.28
2023-08-05T20:01:16.852Z,2.60
2023-08-05T20:03:43.764Z,2.58
2023-08-05T20:06:13.440Z,3.92
2023-08-05T20:08:44.552Z,2.72
2023-08-05T20:11:12.684Z,3.13
2023-08-05T20:13:39.515Z,3.38
2023-08-05T20:16:06.402Z,2.83
2023-08-05T20:21:17.139Z,2.70
2023-08-05T20:23:46.781Z,5.30
2023-08-05T20:26:15.068Z,2.30
2023-08-05T20:28:46.753Z,4.45
2023-08-05T20:31:21.216Z,5.50
2023-08-05T20:33:48.373Z,4.18
2023-08-05T20:36:15.276Z,2.53
2023-08-05T20:38:42.355Z,3.97
2023-08-05T20:41:09.752Z,3.42
2023-08-05T20:43:36.763Z,2.92
2023-08-05T20:46:03.729Z,2.45
2023-08-05T20:48:30.692Z,2.30
2023-08-05T20:50:58.447Z,3.50
2023-08-05T20:53:25.163Z,3.55
2023-08-05T20:55:52.073Z,3.03
2023-08-05T20:58:18.820Z,3.25
2023-08-05T21:01:00.933Z,3.94
2023-08-05T21:03:28.236Z,2.50
2023-08-05T21:06:02.196Z,2.75
2023-08-05T21:08:31.772Z,2.78
2023-08-05T21:11:09.784Z,3.60
2023-08-05T21:13:40.557Z,2.70
2023-08-05T21:16:08.560Z,4.13
2023-08-05T21:18:35.686Z,3.75
2023-08-05T21:21:02.745Z,5.13
2023-08-05T21:23:29.567Z,3.45
2023-08-05T21:25:56.814Z,4.50
2023-08-05T21:28:23.572Z,6.07
2023-08-05T21:30:51.745Z,2.60
2023-08-05T21:33:18.609Z,3.25
2023-08-05T21:35:45.239Z,4.63
2023-08-05T21:38:11.938Z,3.97
2023-08-05T21:40:46.676Z,3.75
2023-08-05T21:43:14.666Z,2.53
2023-08-05T21:45:55.361Z,2.60
2023-08-05T21:48:22.680Z,2.83
2023-08-05T21:50:50.240Z,5.40
2023-08-05T21:53:17.405Z,3.33
2023-08-05T21:55:45.781Z,2.70
2023-08-05T21:58:12.863Z,3.00
2023-08-05T22:00:40.089Z,2.95
2023-08-05T22:03:07.064Z,3.10
2023-08-05T22:05:34.073Z,2.88
2023-08-05T22:08:01.023Z,3.70
2023-08-05T22:10:27.670Z,2.75
2023-08-05T22:12:54.706Z,4.35
2023-08-05T22:15:21.641Z,4.65
2023-08-05T22:17:48.954Z,4.53
2023-08-05T22:20:16.690Z,3.13
2023-08-05T22:22:43.570Z,3.40
2023-08-05T22:25:10.537Z,2.90
2023-08-05T22:27:37.664Z,3.40
2023-08-05T22:30:08.432Z,3.40
2023-08-05T22:32:35.879Z,3.28
2023-08-05T22:35:03.424Z,3.33
2023-08-05T22:37:30.627Z,3.90
2023-08-05T22:40:02.098Z,3.97
2023-08-05T22:42:28.908Z,4.60
2023-08-05T22:44:55.803Z,3.53
2023-08-05T22:47:22.781Z,5.15
2023-08-05T22:49:49.541Z,4.13
2023-08-05T22:52:16.242Z,4.60
2023-08-05T22:54:43.000Z,5.13
2023-08-05T22:57:09.761Z,4.30
2023-08-05T22:59:36.450Z,5.05
2023-08-05T23:02:03.246Z,4.57
2023-08-05T23:04:29.917Z,7.40
2023-08-05T23:06:56.916Z,4.22
2023-08-05T23:09:23.815Z,6.72
2023-08-05T23:11:52.497Z,5.85
2023-08-05T23:14:19.940Z,5.00
2023-08-05T23:16:46.682Z,4.35
2023-08-05T23:19:14.113Z,7.60
2023-08-05T23:21:43.951Z,4.65
2023-08-05T23:24:12.027Z,5.43
2023-08-05T23:26:39.558Z,6.82
2023-08-05T23:29:06.701Z,4.97
2023-08-05T23:31:34.361Z,4.45
2023-08-05T23:34:01.334Z,4.57
2023-08-05T23:36:28.744Z,5.38
2023-08-05T23:38:55.676Z,4.60
2023-08-05T23:41:22.726Z,5.32
2023-08-05T23:43:49.648Z,4.40
2023-08-05T23:46:16.391Z,4.45
2023-08-05T23:48:43.252Z,4.63
2023-08-05T23:51:10.070Z,4.90
2023-08-05T23:53:36.820Z,5.97
2023-08-05T23:56:03.883Z,4.53
2023-08-05T23:58:30.797Z,4.40
